createdAt,value
2018-04-11T00:01:08.270Z,13.90
2018-04-11T00:03:34.911Z,12.88
2018-04-11T00:06:01.587Z,13.95
2018-04-11T00:08:28.250Z,14.27
2018-04-11T00:10:55.491Z,14.32
2018-04-11T00:13:22.163Z,13.50
2018-04-11T00:15:48.799Z,13.27
2018-04-11T00:18:16.261Z,13.32
2018-04-11T00:20:43.610Z,14.25
2018-04-11T00:23:10.363Z,14.05
2018-04-11T00:25:36.984Z,15.10
2018-04-11T00:28:07.503Z,14.75
2018-04-11T00:30:34.154Z,15.00
2018-04-11T00:33:00.827Z,14.45
2018-04-11T00:35:27.500Z,13.62
2018-04-11T00:37:54.648Z,12.98
2018-04-11T00:40:21.322Z,13.35
2018-04-11T00:42:48.895Z,14.55
2018-04-11T00:45:15.579Z,13.98
2018-04-11T00:47:42.224Z,15.57
2018-04-11T00:50:09.103Z,13.60
2018-04-11T00:52:35.763Z,13.70
2018-04-11T00:55:02.391Z,16.00
2018-04-11T00:57:29.019Z,15.00
2018-04-11T00:59:55.680Z,14.60
2018-04-11T01:02:22.446Z,15.10
2018-04-11T01:04:49.209Z,14.80
2018-04-11T01:07:15.903Z,14.05
2018-04-11T01:09:42.561Z,15.60
2018-04-11T01:12:09.204Z,15.00
2018-04-11T01:14:35.901Z,15.05
2018-04-11T01:17:11.039Z,16.20
2018-04-11T01:19:38.383Z,16.23
2018-04-11T01:22:06.047Z,15.73
2018-04-11T01:24:41.113Z,15.73
2018-04-11T01:27:08.943Z,15.80
2018-04-11T01:29:35.600Z,16.27
2018-04-11T01:32:02.258Z,16.75
2018-04-11T01:34:28.898Z,16.05
2018-04-11T01:36:55.621Z,16.20
2018-04-11T01:39:22.309Z,18.98
2018-04-11T01:41:53.970Z,22.58
2018-04-11T01:44:20.640Z,23.27
2018-04-11T01:46:47.322Z,25.92
2018-04-11T01:49:14.103Z,28.23
2018-04-11T01:51:41.250Z,26.60
2018-04-11T01:54:09.682Z,27.90
2018-04-11T01:56:36.354Z,26.95
2018-04-11T01:59:03.520Z,28.27
2018-04-11T02:01:30.181Z,25.62
2018-04-11T02:03:56.918Z,24.55
2018-04-11T02:06:23.611Z,25.10
2018-04-11T02:08:50.278Z,22.40
2018-04-11T02:11:16.971Z,23.60
2018-04-11T02:13:44.130Z,25.90
2018-04-11T02:16:10.771Z,24.37
2018-04-11T02:18:37.412Z,24.33
2018-04-11T02:21:04.053Z,26.17
2018-04-11T02:23:34.956Z,25.88
2018-04-11T02:26:02.537Z,23.92
2018-04-11T02:28:29.291Z,22.45
2018-04-11T02:30:55.965Z,26.73
2018-04-11T02:33:22.614Z,25.30
2018-04-11T02:35:49.484Z,26.33
2018-04-11T02:38:17.202Z,28.70
2018-04-11T02:40:45.198Z,26.20
2018-04-11T02:43:12.795Z,27.80
2018-04-11T02:45:39.957Z,27.75
2018-04-11T02:48:06.705Z,28.05
2018-04-11T02:50:34.275Z,28.77
2018-04-11T02:53:01.791Z,26.65
2018-04-11T02:55:33.560Z,29.67
2018-04-11T02:58:00.185Z,27.75
2018-04-11T03:00:26.888Z,29.75
2018-04-11T03:02:54.351Z,26.37
2018-04-11T03:05:21.437Z,28.38
2018-04-11T03:07:53.499Z,28.67
2018-04-11T03:10:20.156Z,25.80
2018-04-11T03:12:48.057Z,26.75
2018-04-11T03:15:14.859Z,25.62
2018-04-11T03:17:41.618Z,26.27
2018-04-11T03:20:08.298Z,26.30
2018-04-11T03:22:34.969Z,25.10
2018-04-11T03:25:01.592Z,27.98
2018-04-11T03:27:32.767Z,27.33
2018-04-11T03:30:00.134Z,27.02
2018-04-11T03:32:27.005Z,24.23
2018-04-11T03:34:54.121Z,27.27
2018-04-11T03:37:20.817Z,28.67
2018-04-11T03:39:47.868Z,25.33
2018-04-11T03:42:14.902Z,25.95
2018-04-11T03:44:45.368Z,25.92
2018-04-11T03:47:15.994Z,26.20
2018-04-11T03:49:42.639Z,26.67
2018-04-11T03:52:09.298Z,26.52
2018-04-11T03:54:36.107Z,25.02
2018-04-11T03:57:02.796Z,26.70
2018-04-11T03:59:33.551Z,24.98
2018-04-11T04:02:00.187Z,26.37
2018-04-11T04:04:26.865Z,26.23
2018-04-11T04:06:53.550Z,24.35
2018-04-11T04:09:25.822Z,24.58
2018-04-11T04:11:52.525Z,25.83
2018-04-11T04:14:25.228Z,24.75
2018-04-11T04:16:58.555Z,25.10
2018-04-11T04:19:32.148Z,24.35
2018-04-11T04:21:59.419Z,25.80
2018-04-11T04:24:29.817Z,24.52
2018-04-11T04:26:56.563Z,23.27
2018-04-11T04:29:23.217Z,23.52
2018-04-11T04:31:51.302Z,24.15
2018-04-11T04:34:17.942Z,22.98
2018-04-11T04:36:44.664Z,24.33
2018-04-11T04:39:11.370Z,24.92
2018-04-11T04:41:38.061Z,24.08
2018-04-11T04:44:04.790Z,24.50
2018-04-11T04:46:31.523Z,24.37
2018-04-11T04:48:58.207Z,24.58
2018-04-11T04:51:24.865Z,27.45
2018-04-11T04:53:51.626Z,25.90
2018-04-11T04:56:18.281Z,25.23
2018-04-11T04:58:45.079Z,23.92
2018-04-11T05:01:16.603Z,24.45
2018-04-11T05:03:43.671Z,23.10
2018-04-11T05:06:10.347Z,24.58
2018-04-11T05:08:37.112Z,26.65
2018-04-11T05:11:03.796Z,24.48
2018-04-11T05:13:30.805Z,23.23
2018-04-11T05:15:57.605Z,24.67
2018-04-11T05:18:24.296Z,24.00
2018-04-11T05:20:51.001Z,22.37
2018-04-11T05:23:17.671Z,23.58
2018-04-11T05:25:44.967Z,24.17
2018-04-11T05:28:12.410Z,27.35
2018-04-11T05:30:39.167Z,24.35
2018-04-11T05:33:06.241Z,25.20
2018-04-11T05:35:33.134Z,25.90
2018-04-11T05:37:59.931Z,26.15
2018-04-11T05:40:27.874Z,22.25
2018-04-11T05:42:54.517Z,25.48
2018-04-11T05:45:21.170Z,24.40
2018-04-11T05:47:48.677Z,22.77
2018-04-11T05:50:15.899Z,23.05
2018-04-11T05:52:43.177Z,24.00
2018-04-11T05:55:09.810Z,23.65
2018-04-11T05:57:36.521Z,23.38
2018-04-11T06:00:03.185Z,22.08
2018-04-11T06:02:29.872Z,22.13
2018-04-11T06:04:56.486Z,21.80
2018-04-11T06:07:23.160Z,21.80
2018-04-11T06:09:49.786Z,22.67
2018-04-11T06:12:16.467Z,23.85
2018-04-11T06:14:43.215Z,22.25
2018-04-11T06:17:10.002Z,22.30
2018-04-11T06:19:36.687Z,21.87
2018-04-11T06:22:03.441Z,22.85
2018-04-11T06:24:30.132Z,20.55
2018-04-11T06:26:57.065Z,21.12
2018-04-11T06:29:23.771Z,22.33
2018-04-11T06:31:50.587Z,20.92
2018-04-11T06:34:17.219Z,19.00
2018-04-11T06:36:43.987Z,21.17
2018-04-11T06:39:10.731Z,22.33
2018-04-11T06:41:37.510Z,21.67
2018-04-11T06:44:04.393Z,20.35
2018-04-11T06:46:31.262Z,23.55
2018-04-11T06:48:58.019Z,23.42
2018-04-11T06:51:24.698Z,22.95
2018-04-11T06:53:51.501Z,19.87
2018-04-11T06:56:18.329Z,20.97
2018-04-11T06:58:45.098Z,21.70
2018-04-11T07:01:11.880Z,23.10
2018-04-11T07:03:38.648Z,21.90
2018-04-11T07:06:05.394Z,21.70
2018-04-11T07:08:32.123Z,19.47
2018-04-11T07:10:58.913Z,20.80
2018-04-11T07:13:25.745Z,19.57
2018-04-11T07:15:52.439Z,20.57
2018-04-11T07:18:19.166Z,23.13
2018-04-11T07:20:45.961Z,23.10
2018-04-11T07:23:12.679Z,19.43
2018-04-11T07:25:39.775Z,21.20
2018-04-11T07:28:06.508Z,21.20
2018-04-11T07:30:33.245Z,20.20
2018-04-11T07:32:59.854Z,25.20
2018-04-11T07:35:26.493Z,25.70
2018-04-11T07:37:53.145Z,19.00
2018-04-11T07:40:24.960Z,18.40
2018-04-11T07:42:51.737Z,20.65
2018-04-11T07:45:18.384Z,20.27
2018-04-11T07:47:45.011Z,19.40
2018-04-11T07:50:11.673Z,19.23
2018-04-11T07:52:38.322Z,19.62
2018-04-11T07:55:04.971Z,19.90
2018-04-11T07:57:31.602Z,18.50
2018-04-11T07:59:58.263Z,17.92
2018-04-11T08:02:24.891Z,18.20
2018-04-11T08:04:51.554Z,17.27
2018-04-11T08:07:18.190Z,16.40
2018-04-11T08:09:44.878Z,17.08
2018-04-11T08:12:11.559Z,17.90
2018-04-11T08:14:38.219Z,16.05
2018-04-11T08:17:04.859Z,15.77
2018-04-11T08:19:31.506Z,18.77
2018-04-11T08:21:58.194Z,18.13
2018-04-11T08:24:24.813Z,16.33
2018-04-11T08:26:51.578Z,16.27
2018-04-11T08:29:18.193Z,15.60
2018-04-11T08:31:45.482Z,16.67
2018-04-11T08:34:12.099Z,14.40
2018-04-11T08:36:38.742Z,17.67
2018-04-11T08:39:06.080Z,15.80
2018-04-11T08:41:32.722Z,17.20
2018-04-11T08:43:59.339Z,15.57
2018-04-11T08:46:25.978Z,17.93
2018-04-11T08:48:52.602Z,15.73
2018-04-11T08:51:19.313Z,16.87
2018-04-11T08:53:46.634Z,16.27
2018-04-11T08:56:13.275Z,15.20
2018-04-11T08:58:39.908Z,16.03
2018-04-11T09:01:06.571Z,17.60
2018-04-11T09:03:33.218Z,16.47
2018-04-11T09:05:59.847Z,16.87
2018-04-11T09:08:26.482Z,15.77
2018-04-11T09:10:53.122Z,15.80
2018-04-11T09:40:59.860Z,13.70
2018-04-11T09:43:26.494Z,12.63
2018-04-11T09:45:53.131Z,13.03
2018-04-11T09:48:19.750Z,11.63
2018-04-11T10:45:57.993Z,13.20
2018-04-11T10:48:24.634Z,13.18
2018-04-11T10:50:51.259Z,13.60
2018-04-11T10:53:17.909Z,15.00
2018-04-11T10:55:44.595Z,13.90
2018-04-11T10:58:11.333Z,15.52
2018-04-11T11:00:37.990Z,17.25
2018-04-11T11:03:04.680Z,16.27
2018-04-11T11:05:31.326Z,16.73
2018-04-11T11:07:57.971Z,16.45
2018-04-11T11:10:24.660Z,17.70
2018-04-11T11:12:51.308Z,17.40
2018-04-11T11:15:17.952Z,16.33
2018-04-11T11:17:44.639Z,16.80
2018-04-11T11:20:11.279Z,17.33
2018-04-11T11:22:38.650Z,17.58
2018-04-11T11:25:05.298Z,19.10
2018-04-11T11:27:31.939Z,17.10
2018-04-11T11:29:58.593Z,17.70
2018-04-11T11:32:25.224Z,18.70
2018-04-11T11:34:52.023Z,16.53
2018-04-11T11:37:18.692Z,16.10
2018-04-11T11:39:45.335Z,16.03
2018-04-11T11:42:11.971Z,16.12
2018-04-11T11:44:38.625Z,16.77
2018-04-11T11:47:05.272Z,16.48
2018-04-11T11:49:31.956Z,16.03
2018-04-11T11:51:58.650Z,18.33
2018-04-11T11:54:26.127Z,16.20
2018-04-11T11:56:53.277Z,13.93
2018-04-11T11:59:19.943Z,15.30
2018-04-11T12:01:46.586Z,15.13
2018-04-11T12:04:13.225Z,15.90
2018-04-11T12:06:39.861Z,17.03
2018-04-11T12:09:06.522Z,17.23
2018-04-11T12:11:33.731Z,17.35
2018-04-11T12:14:00.369Z,16.50
2018-04-11T12:16:27.026Z,17.10
2018-04-11T12:18:53.650Z,16.17
2018-04-11T12:21:20.287Z,15.37
2018-04-11T12:23:46.924Z,17.15
2018-04-11T12:26:13.588Z,17.00
2018-04-11T12:28:40.231Z,16.98
2018-04-11T12:31:06.894Z,18.10
2018-04-11T12:33:33.539Z,16.67
2018-04-11T12:36:00.194Z,17.05
2018-04-11T12:38:26.834Z,16.83
2018-04-11T12:40:53.518Z,16.52
2018-04-11T12:43:20.749Z,16.05
2018-04-11T12:45:47.413Z,15.73
2018-04-11T12:48:14.100Z,16.70
2018-04-11T12:50:40.796Z,16.87
2018-04-11T12:53:07.435Z,16.65
2018-04-11T12:55:34.083Z,16.95
2018-04-11T12:58:00.771Z,16.75
2018-04-11T13:00:28.225Z,16.98
2018-04-11T13:02:54.886Z,15.33
2018-04-11T13:05:21.561Z,16.23
2018-04-11T13:07:48.262Z,17.77
2018-04-11T13:10:14.943Z,17.05
2018-04-11T13:12:41.633Z,18.98
2018-04-11T13:15:08.323Z,17.20
2018-04-11T13:17:34.963Z,17.40
2018-04-11T13:20:01.599Z,18.17
2018-04-11T13:22:28.306Z,19.12
2018-04-11T13:24:55.015Z,18.40
2018-04-11T13:27:21.686Z,17.17
2018-04-11T13:29:48.325Z,17.85
2018-04-11T13:32:14.966Z,16.65
2018-04-11T13:34:41.595Z,19.58
2018-04-11T13:37:08.278Z,15.45
2018-04-11T13:39:34.962Z,15.35
2018-04-11T13:42:01.598Z,12.30
2018-04-11T13:44:28.286Z,12.63
2018-04-11T13:46:54.935Z,13.60
2018-04-11T13:49:21.620Z,11.57
2018-04-11T13:51:48.289Z,10.88
2018-04-11T13:54:14.956Z,10.88
2018-04-11T13:56:41.612Z,10.55
2018-04-11T13:59:08.296Z,10.85
2018-04-11T14:01:35.725Z,10.23
2018-04-11T14:04:02.405Z,9.85
2018-04-11T14:06:29.105Z,10.13
2018-04-11T14:08:55.791Z,9.83
2018-04-11T14:11:22.571Z,10.63
2018-04-11T14:13:49.213Z,10.57
2018-04-11T14:16:15.923Z,11.40
2018-04-11T14:18:42.580Z,10.82
2018-04-11T14:21:09.266Z,11.13
2018-04-11T14:23:35.981Z,11.70
2018-04-11T14:26:02.675Z,12.93
2018-04-11T14:28:29.385Z,12.52
2018-04-11T14:30:56.016Z,11.57
2018-04-11T14:33:22.708Z,11.88
2018-04-11T14:35:49.355Z,12.15
2018-04-11T14:38:16.307Z,10.57
2018-04-11T14:40:42.962Z,13.65
2018-04-11T14:43:09.679Z,13.43
2018-04-11T14:45:36.364Z,14.85
2018-04-11T14:48:03.043Z,13.98
2018-04-11T14:50:29.680Z,14.43
2018-04-11T14:52:56.373Z,13.30
2018-04-11T14:55:23.735Z,13.15
2018-04-11T14:57:50.444Z,13.25
2018-04-11T15:00:17.157Z,13.60
2018-04-11T15:02:43.842Z,15.40
2018-04-11T15:05:10.538Z,13.80
2018-04-11T15:07:37.218Z,16.87
2018-04-11T15:10:03.865Z,18.10
2018-04-11T15:12:30.533Z,18.10
2018-04-11T15:14:57.196Z,17.30
2018-04-11T15:17:23.851Z,15.93
2018-04-11T15:19:50.527Z,16.40
2018-04-11T15:22:17.174Z,16.80
2018-04-11T15:24:43.948Z,17.80
2018-04-11T15:27:10.590Z,18.45
2018-04-11T15:29:37.304Z,20.60
2018-04-11T15:32:04.475Z,20.00
2018-04-11T15:34:31.143Z,21.17
2018-04-11T15:36:57.807Z,23.70
2018-04-11T15:39:24.521Z,22.05
2018-04-11T15:41:51.192Z,22.23
2018-04-11T15:44:17.859Z,23.77
2018-04-11T15:46:44.521Z,24.65
2018-04-11T15:49:11.176Z,25.37
2018-04-11T15:51:37.878Z,23.55
2018-04-11T15:54:04.532Z,22.85
2018-04-11T15:56:31.263Z,24.65
2018-04-11T15:58:57.930Z,24.00
2018-04-11T16:01:24.602Z,24.17
2018-04-11T16:03:51.258Z,25.70
2018-04-11T16:06:17.920Z,23.40
2018-04-11T16:08:44.624Z,22.95
2018-04-11T16:11:11.307Z,24.92
2018-04-11T16:13:38.038Z,23.73
2018-04-11T16:16:04.719Z,22.25
2018-04-11T16:18:31.399Z,22.10
2018-04-11T16:20:58.305Z,19.23
2018-04-11T16:23:24.977Z,21.23
2018-04-11T16:25:51.628Z,22.37
2018-04-11T16:28:18.298Z,19.20
2018-04-11T16:30:44.977Z,21.70
2018-04-11T16:33:11.692Z,21.30
2018-04-11T16:35:38.331Z,20.75
2018-04-11T16:38:05.033Z,23.10
2018-04-11T16:40:31.698Z,22.00
2018-04-11T16:42:58.610Z,22.05
2018-04-11T16:45:25.252Z,25.20
2018-04-11T16:47:51.922Z,23.02
2018-04-11T16:50:18.653Z,26.92
2018-04-11T16:52:45.867Z,28.40
2018-04-11T16:55:13.304Z,26.95
2018-04-11T16:57:40.010Z,29.25
2018-04-11T17:00:07.828Z,27.62
2018-04-11T17:02:38.927Z,27.62
2018-04-11T17:05:05.912Z,28.95
2018-04-11T17:07:32.757Z,28.70
2018-04-11T17:09:59.514Z,30.30
2018-04-11T17:12:26.184Z,30.00
2018-04-11T17:14:53.258Z,32.05
2018-04-11T17:17:19.944Z,31.90
2018-04-11T17:19:50.633Z,33.55
2018-04-11T17:22:23.479Z,32.08
2018-04-11T17:24:56.114Z,32.72
2018-04-11T17:27:28.690Z,32.40
2018-04-11T17:30:02.215Z,30.50
2018-04-11T17:32:29.348Z,29.30
2018-04-11T17:34:57.087Z,30.55
2018-04-11T17:37:23.791Z,29.83
2018-04-11T17:39:50.564Z,29.90
2018-04-11T17:42:17.276Z,29.27
2018-04-11T17:44:44.398Z,31.00
2018-04-11T17:47:11.182Z,29.80
2018-04-11T17:49:37.916Z,28.38
2018-04-11T17:52:04.614Z,34.08
2018-04-11T17:54:35.062Z,31.55
2018-04-11T17:57:01.841Z,32.10
2018-04-11T17:59:28.719Z,32.33
2018-04-11T18:01:55.748Z,33.00
2018-04-11T18:04:23.948Z,30.40
2018-04-11T18:06:50.972Z,30.30
2018-04-11T18:09:17.746Z,31.95
2018-04-11T18:11:44.427Z,29.50
2018-04-11T18:14:14.849Z,31.52
2018-04-11T18:16:41.575Z,31.15
2018-04-11T18:19:08.982Z,32.10
2018-04-11T18:21:36.429Z,31.67
2018-04-11T18:24:03.161Z,32.45
2018-04-11T18:26:29.958Z,34.13
2018-04-11T18:28:57.558Z,35.05
2018-04-11T18:31:24.199Z,33.50
2018-04-11T18:33:50.936Z,34.55
2018-04-11T18:36:19.052Z,34.13
2018-04-11T18:38:45.774Z,36.70
2018-04-11T18:41:12.511Z,34.83
2018-04-11T18:43:39.191Z,37.50
2018-04-11T18:46:05.881Z,38.28
2018-04-11T18:48:32.537Z,37.72
2018-04-11T18:50:59.196Z,34.90
2018-04-11T18:53:25.943Z,35.20
2018-04-11T18:55:52.665Z,36.45
2018-04-11T18:58:20.195Z,36.17
2018-04-11T19:00:47.617Z,35.60
2018-04-11T19:03:14.323Z,35.03
2018-04-11T19:05:41.097Z,36.92
2018-04-11T19:08:07.857Z,37.22
2018-04-11T19:10:36.549Z,40.30
2018-04-11T19:13:04.362Z,39.55
2018-04-11T19:15:32.227Z,37.42
2018-04-11T19:17:59.248Z,36.35
2018-04-11T19:20:26.132Z,39.17
2018-04-11T19:22:53.066Z,38.30
2018-04-11T19:25:25.093Z,40.03
2018-04-11T19:27:52.140Z,35.28
2018-04-11T19:30:19.325Z,39.55
2018-04-11T19:32:46.498Z,40.85
2018-04-11T19:35:13.859Z,37.10
2018-04-11T19:37:41.424Z,38.05
2018-04-11T19:40:09.586Z,37.72
2018-04-11T19:42:36.741Z,39.00
2018-04-11T19:45:04.099Z,39.88
2018-04-11T19:47:32.128Z,38.42
2018-04-11T19:49:59.138Z,38.30
2018-04-11T19:52:26.114Z,40.47
2018-04-11T19:54:53.024Z,38.03
2018-04-11T19:57:20.708Z,34.78
2018-04-11T19:59:47.895Z,35.65
2018-04-11T20:02:14.772Z,36.20
2018-04-11T20:04:41.614Z,38.90
2018-04-11T20:07:08.548Z,36.20
2018-04-11T20:09:35.441Z,35.92
2018-04-11T20:12:02.340Z,38.58
2018-04-11T20:14:29.136Z,36.33
2018-04-11T20:16:55.898Z,38.25
2018-04-11T20:19:22.612Z,35.15
2018-04-11T20:21:49.471Z,35.65
2018-04-11T20:24:16.204Z,36.08
2018-04-11T20:26:43.643Z,34.97
2018-04-11T20:29:11.632Z,35.80
2018-04-11T20:31:39.900Z,35.28
2018-04-11T20:34:07.017Z,36.05
2018-04-11T20:36:33.829Z,35.80
2018-04-11T20:39:01.397Z,34.08
2018-04-11T20:41:28.392Z,36.88
2018-04-11T20:43:55.345Z,35.55
2018-04-11T20:46:22.481Z,36.13
2018-04-11T20:48:49.561Z,33.40
2018-04-11T20:51:16.419Z,34.28
2018-04-11T20:53:43.767Z,32.33
2018-04-11T20:56:11.473Z,33.97
2018-04-11T20:58:39.170Z,33.90
2018-04-11T21:01:07.539Z,34.67
2018-04-11T21:03:35.254Z,35.90
2018-04-11T21:06:03.046Z,35.17
2018-04-11T21:08:30.190Z,35.55
2018-04-11T21:10:57.168Z,35.60
2018-04-11T21:13:24.370Z,35.30
2018-04-11T21:15:51.594Z,35.03
2018-04-11T21:18:18.445Z,34.03
2018-04-11T21:20:46.209Z,35.50
2018-04-11T21:23:13.991Z,34.60
2018-04-11T21:25:40.951Z,32.70
2018-04-11T21:28:08.388Z,34.40
2018-04-11T21:30:35.232Z,36.72
2018-04-11T21:33:02.500Z,36.03
2018-04-11T21:35:29.258Z,37.83
2018-04-11T21:38:01.177Z,36.35
2018-04-11T21:40:28.218Z,34.65
2018-04-11T21:42:55.053Z,35.05
2018-04-11T21:45:22.251Z,33.80
2018-04-11T21:47:48.964Z,35.88
2018-04-11T21:50:17.370Z,35.40
2018-04-11T21:52:44.276Z,36.92
2018-04-11T21:55:11.015Z,36.20
2018-04-11T21:57:42.485Z,38.25
2018-04-11T22:00:10.433Z,38.45
2018-04-11T22:02:38.555Z,39.50
2018-04-11T22:05:05.257Z,36.20
2018-04-11T22:07:32.829Z,38.15
2018-04-11T22:09:59.775Z,37.42
2018-04-11T22:12:26.621Z,35.72
2018-04-11T22:14:53.408Z,39.33
2018-04-11T22:17:20.095Z,38.33
2018-04-11T22:19:47.774Z,38.50
2018-04-11T22:22:14.533Z,37.97
2018-04-11T22:24:41.971Z,39.17
2018-04-11T22:27:08.778Z,37.85
2018-04-11T22:29:36.231Z,39.08
2018-04-11T22:32:04.077Z,40.67
2018-04-11T22:34:31.927Z,39.63
2018-04-11T22:36:58.650Z,38.38
2018-04-11T22:39:25.372Z,37.80
2018-04-11T22:41:52.029Z,35.95
2018-04-11T22:44:23.579Z,39.33
2018-04-11T22:46:50.258Z,39.85
2018-04-11T22:49:18.140Z,38.13
2018-04-11T22:51:44.762Z,36.22
2018-04-11T22:54:11.427Z,35.85
2018-04-11T22:56:38.257Z,33.50
2018-04-11T22:59:04.916Z,36.05
2018-04-11T23:01:31.627Z,35.47
2018-04-11T23:04:02.052Z,35.92
2018-04-11T23:06:28.750Z,36.47
2018-04-11T23:08:55.450Z,35.15
2018-04-11T23:11:22.169Z,33.65
2018-04-11T23:13:48.819Z,33.75
2018-04-11T23:16:15.459Z,34.38
2018-04-11T23:18:42.222Z,31.80
2018-04-11T23:21:08.878Z,31.70
2018-04-11T23:23:35.539Z,32.28
2018-04-11T23:26:02.192Z,28.92
2018-04-11T23:28:28.867Z,34.13
2018-04-11T23:30:55.538Z,29.70
2018-04-11T23:33:25.132Z,28.48
2018-04-11T23:35:51.825Z,27.67
2018-04-11T23:38:18.459Z,28.58
2018-04-11T23:40:45.767Z,28.25
2018-04-11T23:43:17.663Z,26.73
2018-04-11T23:45:44.962Z,27.73
2018-04-11T23:48:11.854Z,26.52
2018-04-11T23:50:38.535Z,25.67
2018-04-11T23:53:05.212Z,28.35
2018-04-11T23:55:31.891Z,27.08
2018-04-11T23:57:59.395Z,25.95
